Time;durP1;ratioP1;P1;durP2;ratioP2;P2;SDS_P1;SDS_P2;PMS_P1;PMS_P2;Temp;Humidity;BMP_temperature;BMP_pressure;BME280_temperature;BME280_humidity;BME280_pressure;Samples;Min_cycle;Max_cycle;Signal;HPM_P1;HPM_P2
2023/12/14 00:00:28;;;;;;;16.23;11.80;;;8.10;99.90;;;;;;5052979;28;20457;-79
2023/12/14 00:02:55;;;;;;;22.07;14.50;;;8.20;99.90;;;;;;5053201;28;20464;-78
2023/12/14 00:05:22;;;;;;;23.43;14.67;;;8.20;99.90;;;;;;5053240;28;20453;-79
2023/12/14 00:07:48;;;;;;;21.77;14.27;;;8.20;99.90;;;;;;5051400;28;20463;-79
2023/12/14 00:10:17;;;;;;;24.67;14.10;;;8.30;99.90;;;;;;5052688;28;20484;-79
2023/12/14 00:12:44;;;;;;;26.57;15.27;;;8.20;99.90;;;;;;5044431;28;20449;-79
2023/12/14 00:15:12;;;;;;;24.93;13.97;;;8.10;99.90;;;;;;5053175;28;20455;-79
2023/12/14 00:17:39;;;;;;;22.63;13.43;;;8.10;99.90;;;;;;5053528;28;20523;-80
2023/12/14 00:20:10;;;;;;;27.93;14.30;;;8.20;99.90;;;;;;5052634;28;20482;-78
2023/12/14 00:22:42;;;;;;;22.17;12.80;;;8.10;99.90;;;;;;5052788;28;20496;-79
2023/12/14 00:25:09;;;;;;;17.87;11.90;;;8.10;99.90;;;;;;5052195;28;20958;-79
2023/12/14 00:27:36;;;;;;;19.33;10.70;;;8.00;99.90;;;;;;5050412;28;20526;-79
2023/12/14 00:30:03;;;;;;;22.07;13.87;;;8.10;99.90;;;;;;5046527;28;20478;-79
2023/12/14 00:32:31;;;;;;;16.50;10.33;;;7.90;99.90;;;;;;5053038;28;20453;-79
2023/12/14 00:34:58;;;;;;;18.33;10.83;;;8.00;99.90;;;;;;5052426;28;20452;-79
2023/12/14 00:37:25;;;;;;;17.10;11.47;;;7.80;99.90;;;;;;5050970;28;20459;-79
2023/12/14 00:39:51;;;;;;;20.67;11.27;;;7.70;99.90;;;;;;5051287;28;20476;-79
2023/12/14 00:42:18;;;;;;;15.77;9.87;;;7.50;99.90;;;;;;5052529;28;20500;-77
2023/12/14 00:44:45;;;;;;;15.90;10.00;;;7.60;99.90;;;;;;5052799;28;20481;-79
2023/12/14 00:47:12;;;;;;;15.30;11.33;;;7.70;99.90;;;;;;5052532;28;20459;-79
2023/12/14 00:49:40;;;;;;;13.90;9.13;;;7.60;99.90;;;;;;5047292;28;20480;-79
2023/12/14 00:52:07;;;;;;;13.40;9.60;;;7.60;99.90;;;;;;5051933;28;20456;-78
2023/12/14 00:54:33;;;;;;;16.10;11.43;;;7.60;99.90;;;;;;5043976;28;20452;-79
2023/12/14 00:57:00;;;;;;;16.60;11.10;;;7.60;99.90;;;;;;5052488;28;20452;-79
2023/12/14 00:59:27;;;;;;;15.70;9.83;;;7.60;99.90;;;;;;5051838;28;20495;-78
2023/12/14 01:01:54;;;;;;;10.57;7.80;;;7.60;99.90;;;;;;5048616;28;20484;-78
2023/12/14 01:04:20;;;;;;;11.60;8.53;;;7.70;99.90;;;;;;5052150;28;20457;-79
2023/12/14 01:06:48;;;;;;;12.47;7.70;;;7.50;99.90;;;;;;5051491;28;20453;-79
2023/12/14 01:09:15;;;;;;;10.37;7.80;;;7.50;99.90;;;;;;5051681;28;20476;-79
2023/12/14 01:11:42;;;;;;;11.20;8.13;;;7.50;99.90;;;;;;5048331;28;20452;-78
2023/12/14 01:14:09;;;;;;;9.80;7.07;;;7.50;99.90;;;;;;5052160;28;20478;-78
2023/12/14 01:16:35;;;;;;;14.77;7.73;;;7.40;99.90;;;;;;5051736;28;20463;-78
2023/12/14 01:19:02;;;;;;;7.90;6.30;;;7.20;99.90;;;;;;5051100;28;20993;-78
2023/12/14 01:21:29;;;;;;;11.43;7.20;;;7.30;99.90;;;;;;5050997;28;20480;-78
2023/12/14 01:23:57;;;;;;;11.40;7.70;;;7.30;99.90;;;;;;5051617;28;20464;-78
2023/12/14 01:26:24;;;;;;;14.73;6.70;;;7.30;99.90;;;;;;5045346;28;20462;-79
2023/12/14 01:28:51;;;;;;;8.87;6.40;;;7.20;99.90;;;;;;5051816;28;20557;-77
2023/12/14 01:31:17;;;;;;;9.53;7.20;;;7.30;99.90;;;;;;5051476;28;20451;-78
2023/12/14 01:33:45;;;;;;;7.30;6.07;;;7.30;99.90;;;;;;5051105;28;20459;-77
2023/12/14 01:36:12;;;;;;;9.17;6.30;;;7.20;99.90;;;;;;5051728;28;20491;-78
2023/12/14 01:38:39;;;;;;;8.70;7.30;;;7.20;99.90;;;;;;5045317;28;21019;-79
2023/12/14 01:41:07;;;;;;;6.67;5.30;;;7.20;99.90;;;;;;5046399;28;20475;-78
2023/12/14 01:43:34;;;;;;;9.20;6.57;;;7.30;99.90;;;;;;5051459;28;20448;-78
2023/12/14 01:46:01;;;;;;;12.10;7.90;;;7.30;99.90;;;;;;5051679;28;20455;-78
2023/12/14 01:48:28;;;;;;;11.53;8.50;;;7.30;99.90;;;;;;5043992;28;20478;-78
2023/12/14 01:50:55;;;;;;;10.70;7.23;;;7.20;99.90;;;;;;5049998;28;20468;-78
2023/12/14 01:53:22;;;;;;;12.97;9.03;;;7.20;99.90;;;;;;5055128;28;20535;-78
2023/12/14 01:55:49;;;;;;;10.73;7.70;;;7.30;99.90;;;;;;5055002;28;20458;-79
2023/12/14 01:58:17;;;;;;;14.90;8.20;;;7.30;99.90;;;;;;5050758;28;20467;-78
2023/12/14 02:00:49;;;;;;;13.53;9.33;;;7.30;99.90;;;;;;5054306;28;20813;-78
2023/12/14 02:03:17;;;;;;;14.00;8.80;;;7.30;99.90;;;;;;5055070;28;20490;-77
2023/12/14 02:05:43;;;;;;;18.13;10.87;;;7.30;99.90;;;;;;5054463;28;20449;-78
2023/12/14 02:08:10;;;;;;;14.40;10.40;;;7.30;99.90;;;;;;5049334;28;20459;-80
2023/12/14 02:10:37;;;;;;;15.70;10.20;;;7.30;99.90;;;;;;5045783;28;20466;-80
2023/12/14 02:13:04;;;;;;;12.40;8.80;;;7.30;99.90;;;;;;5054755;28;20445;-79
2023/12/14 02:15:32;;;;;;;15.30;10.20;;;7.40;99.90;;;;;;5052813;28;20454;-79
2023/12/14 02:17:59;;;;;;;15.73;10.40;;;7.40;99.90;;;;;;5055027;28;20453;-78
2023/12/14 02:20:26;;;;;;;16.03;9.73;;;7.30;99.90;;;;;;5054165;28;20475;-79
2023/12/14 02:22:54;;;;;;;15.43;10.77;;;7.30;99.90;;;;;;5051735;28;20484;-78
2023/12/14 02:25:25;;;;;;;22.63;11.93;;;7.20;99.90;;;;;;5054299;28;20842;-78
2023/12/14 02:27:52;;;;;;;20.37;13.10;;;7.10;99.90;;;;;;5054019;28;20948;-78
2023/12/14 02:30:19;;;;;;;18.17;11.60;;;7.00;99.90;;;;;;5053237;28;20522;-77
2023/12/14 02:32:46;;;;;;;23.23;13.70;;;7.00;99.90;;;;;;5054602;28;20444;-79
2023/12/14 02:35:13;;;;;;;23.47;14.40;;;6.90;99.90;;;;;;5046261;28;20948;-79
2023/12/14 02:37:41;;;;;;;18.43;12.57;;;6.90;99.90;;;;;;5053662;28;20845;-79
2023/12/14 02:40:10;;;;;;;23.07;13.00;;;6.90;99.90;;;;;;5053329;28;20484;-81
2023/12/14 02:42:37;;;;;;;15.50;10.73;;;6.90;99.90;;;;;;5054191;28;20487;-78
2023/12/14 02:45:05;;;;;;;15.57;10.73;;;6.90;99.90;;;;;;5054276;28;20482;-81
2023/12/14 02:47:32;;;;;;;18.57;11.60;;;6.90;99.90;;;;;;5053419;28;20966;-77
2023/12/14 02:49:58;;;;;;;15.70;10.80;;;6.90;99.90;;;;;;5053166;28;20857;-81
2023/12/14 02:52:27;;;;;;;16.13;9.93;;;6.80;99.90;;;;;;5051913;28;20830;-81
2023/12/14 02:54:54;;;;;;;21.13;12.43;;;7.00;99.90;;;;;;5053450;28;20947;-81
2023/12/14 02:57:22;;;;;;;15.10;10.47;;;6.90;99.90;;;;;;5053992;28;20452;-81
2023/12/14 02:59:48;;;;;;;20.80;11.10;;;6.80;99.90;;;;;;5052948;28;20575;-81
2023/12/14 03:02:15;;;;;;;17.70;11.13;;;6.90;99.90;;;;;;5052420;28;20484;-81
2023/12/14 03:04:42;;;;;;;25.93;12.43;;;6.90;99.90;;;;;;5053148;28;20466;-80
2023/12/14 03:07:09;;;;;;;20.67;12.87;;;6.90;99.90;;;;;;5047334;28;20484;-81
2023/12/14 03:09:36;;;;;;;17.37;11.30;;;6.90;99.90;;;;;;5054037;28;20502;-81
2023/12/14 03:12:02;;;;;;;16.23;10.33;;;6.80;99.90;;;;;;5055576;28;20448;-80
2023/12/14 03:14:34;;;;;;;18.27;10.70;;;6.90;99.90;;;;;;5054493;28;20481;-80
2023/12/14 03:17:01;;;;;;;17.83;10.40;;;6.80;99.90;;;;;;5047101;28;20827;-80
2023/12/14 03:19:36;;;;;;;15.50;10.53;;;6.80;99.90;;;;;;5052873;28;20550;-80
2023/12/14 03:22:03;;;;;;;15.57;9.30;;;6.90;99.90;;;;;;5049108;28;20486;-80
2023/12/14 03:24:37;;;;;;;18.67;11.20;;;6.90;99.90;;;;;;5052067;28;20954;-80
2023/12/14 03:27:04;;;;;;;18.97;9.63;;;7.00;99.90;;;;;;5052943;28;20455;-80
2023/12/14 03:29:33;;;;;;;13.23;10.53;;;6.90;99.90;;;;;;5052363;28;20489;-79
2023/12/14 03:32:00;;;;;;;19.10;11.20;;;6.90;99.90;;;;;;5053036;28;20960;-79
2023/12/14 03:34:26;;;;;;;23.07;12.80;;;6.90;99.90;;;;;;5053142;28;20457;-80
2023/12/14 03:36:53;;;;;;;13.07;9.43;;;7.00;99.90;;;;;;5048505;28;20454;-79
2023/12/14 03:39:20;;;;;;;18.63;13.43;;;6.90;99.90;;;;;;5049258;28;20480;-80
2023/12/14 03:41:47;;;;;;;20.13;12.20;;;6.90;99.90;;;;;;5052551;28;20459;-79
2023/12/14 03:44:14;;;;;;;16.90;10.67;;;6.90;99.90;;;;;;5051231;28;20979;-80
2023/12/14 03:46:42;;;;;;;22.27;11.20;;;7.00;99.90;;;;;;5053316;28;20456;-80
2023/12/14 03:49:08;;;;;;;20.83;11.40;;;7.00;99.90;;;;;;5051869;28;20482;-80
2023/12/14 03:51:35;;;;;;;20.17;10.83;;;7.00;99.90;;;;;;5052764;28;20456;-81
2023/12/14 03:54:04;;;;;;;19.90;10.43;;;7.10;99.90;;;;;;5047480;28;20451;-80
2023/12/14 03:56:31;;;;;;;16.67;10.80;;;7.20;99.90;;;;;;5047513;28;20965;-80
2023/12/14 03:58:58;;;;;;;18.27;11.87;;;7.20;99.90;;;;;;5057801;28;20926;-81
2023/12/14 04:01:25;;;;;;;18.90;10.97;;;7.10;99.90;;;;;;5056692;28;20554;-82
2023/12/14 04:03:53;;;;;;;14.73;10.07;;;7.00;99.90;;;;;;5048157;28;20502;-81
2023/12/14 04:06:20;;;;;;;20.40;12.80;;;6.90;99.90;;;;;;5054437;28;20466;-82
2023/12/14 04:08:46;;;;;;;19.10;11.90;;;6.80;99.90;;;;;;5055975;28;21000;-82
2023/12/14 04:11:13;;;;;;;14.30;9.03;;;6.70;99.90;;;;;;5054377;28;20456;-82
2023/12/14 04:13:40;;;;;;;15.00;10.50;;;6.80;99.90;;;;;;5056162;28;20974;-82
2023/12/14 04:16:07;;;;;;;18.03;11.07;;;6.80;99.90;;;;;;5056055;28;20941;-82
2023/12/14 04:18:34;;;;;;;14.90;10.37;;;6.90;99.90;;;;;;5056251;28;20486;-82
2023/12/14 04:21:02;;;;;;;18.10;9.50;;;6.80;99.90;;;;;;5053353;28;20463;-82
2023/12/14 04:23:29;;;;;;;16.43;10.60;;;6.80;99.90;;;;;;5052487;28;20512;-83
2023/12/14 04:25:56;;;;;;;14.73;9.43;;;6.80;99.90;;;;;;5056813;28;20454;-83
2023/12/14 04:28:23;;;;;;;12.03;8.77;;;6.80;99.90;;;;;;5056372;28;20822;-82
2023/12/14 04:30:55;;;;;;;20.20;10.20;;;6.80;99.90;;;;;;5055877;28;20473;-82
2023/12/14 04:33:22;;;;;;;12.30;7.80;;;6.70;99.90;;;;;;5047629;28;20538;-83
2023/12/14 04:35:49;;;;;;;12.43;8.27;;;6.60;99.90;;;;;;5056174;28;21003;-83
2023/12/14 04:38:17;;;;;;;14.50;8.73;;;6.70;99.90;;;;;;5049589;28;20465;-83
2023/12/14 04:40:43;;;;;;;15.27;9.13;;;6.70;99.90;;;;;;5046871;28;20458;-83
2023/12/14 04:43:10;;;;;;;14.77;8.10;;;6.60;99.90;;;;;;5055893;28;20492;-82
2023/12/14 04:45:37;;;;;;;12.10;8.23;;;6.50;99.90;;;;;;5059592;28;20448;-82
2023/12/14 04:48:04;;;;;;;11.10;7.80;;;6.50;99.90;;;;;;5057238;28;20940;-82
2023/12/14 04:50:31;;;;;;;10.53;6.77;;;6.50;99.90;;;;;;5060840;28;20531;-81
2023/12/14 04:52:57;;;;;;;11.27;8.00;;;6.50;99.90;;;;;;5059211;28;20454;-81
2023/12/14 04:55:26;;;;;;;11.27;7.40;;;6.50;99.90;;;;;;5055683;28;20904;-81
2023/12/14 04:57:55;;;;;;;10.27;7.40;;;6.50;99.90;;;;;;5061633;28;20456;-81
2023/12/14 05:00:22;;;;;;;9.40;6.17;;;6.50;99.90;;;;;;5057483;28;21063;-81
2023/12/14 05:02:49;;;;;;;15.03;8.33;;;6.60;99.90;;;;;;5059693;28;20479;-81
2023/12/14 05:05:16;;;;;;;14.90;10.03;;;6.60;99.90;;;;;;5060720;28;20455;-79
2023/12/14 05:07:42;;;;;;;20.73;9.63;;;6.40;99.90;;;;;;5055723;28;20467;-79
2023/12/14 05:10:10;;;;;;;14.77;9.07;;;6.30;99.90;;;;;;5057208;28;20482;-81
2023/12/14 05:12:38;;;;;;;17.17;9.67;;;6.20;99.90;;;;;;5057638;28;20455;-81
2023/12/14 05:15:06;;;;;;;17.43;9.80;;;6.20;99.90;;;;;;5056744;28;20451;-80
2023/12/14 05:17:34;;;;;;;20.80;9.90;;;6.10;99.90;;;;;;5058241;28;20459;-81
2023/12/14 05:20:01;;;;;;;17.60;9.93;;;6.10;99.90;;;;;;5058365;28;20562;-80
2023/12/14 05:22:28;;;;;;;16.30;9.10;;;6.20;99.90;;;;;;5056300;28;20841;-81
2023/12/14 05:24:55;;;;;;;17.60;10.30;;;6.20;99.90;;;;;;5056480;28;20463;-81
2023/12/14 05:27:22;;;;;;;17.53;10.47;;;6.20;99.90;;;;;;5058616;28;20461;-81
2023/12/14 05:29:50;;;;;;;21.13;10.70;;;6.10;99.90;;;;;;5055392;28;20479;-80
2023/12/14 05:32:16;;;;;;;15.43;9.53;;;6.20;99.90;;;;;;5059758;28;20466;-81
2023/12/14 05:34:43;;;;;;;13.97;9.40;;;6.10;99.90;;;;;;5060141;28;20586;-81
2023/12/14 05:37:10;;;;;;;14.60;9.40;;;6.10;99.90;;;;;;5055053;28;20541;-80
2023/12/14 05:39:37;;;;;;;16.47;9.70;;;6.30;99.90;;;;;;5056870;28;20474;-80
2023/12/14 05:42:04;;;;;;;13.97;8.37;;;6.10;99.90;;;;;;5059108;28;20507;-80
2023/12/14 05:44:30;;;;;;;14.37;9.37;;;6.20;99.90;;;;;;5058320;28;20496;-81
2023/12/14 05:46:59;;;;;;;14.67;9.80;;;6.30;99.90;;;;;;5057985;28;20459;-80
2023/12/14 05:49:25;;;;;;;15.17;8.60;;;6.20;99.90;;;;;;5058907;28;20486;-80
2023/12/14 05:51:52;;;;;;;13.40;8.53;;;6.30;99.90;;;;;;5056904;28;20459;-82
2023/12/14 05:54:20;;;;;;;16.80;10.20;;;6.40;99.90;;;;;;5058231;28;20840;-80
2023/12/14 05:56:47;;;;;;;17.10;9.33;;;6.30;99.90;;;;;;5062736;28;20467;-80
2023/12/14 05:59:14;;;;;;;14.33;9.67;;;6.30;99.90;;;;;;5064620;28;20475;-81
2023/12/14 06:01:47;;;;;;;13.87;9.23;;;6.20;99.90;;;;;;5065966;28;20452;-80
2023/12/14 06:04:15;;;;;;;19.33;10.83;;;6.20;99.90;;;;;;5066566;28;20485;-81
2023/12/14 06:06:42;;;;;;;14.80;10.20;;;6.10;99.90;;;;;;5060444;28;20795;-79
2023/12/14 06:09:09;;;;;;;18.63;12.70;;;6.00;99.90;;;;;;5052304;28;20476;-79
2023/12/14 06:11:36;;;;;;;23.13;12.87;;;6.20;99.90;;;;;;5058641;28;20488;-81
2023/12/14 06:14:03;;;;;;;15.00;9.97;;;6.00;99.90;;;;;;5056112;28;20452;-82
2023/12/14 06:16:29;;;;;;;19.50;11.90;;;6.10;99.90;;;;;;5061167;28;20455;-82
2023/12/14 06:18:56;;;;;;;18.83;11.53;;;6.10;99.90;;;;;;5053161;28;20485;-80
2023/12/14 06:21:26;;;;;;;20.40;12.73;;;6.10;99.90;;;;;;5060854;28;20457;-82
2023/12/14 06:23:52;;;;;;;18.77;11.70;;;6.10;99.90;;;;;;5062469;28;20495;-82
2023/12/14 06:26:19;;;;;;;18.50;12.77;;;6.10;99.90;;;;;;5053580;28;20948;-82
2023/12/14 06:28:46;;;;;;;16.90;12.07;;;6.10;99.90;;;;;;5060795;28;20562;-82
2023/12/14 06:31:14;;;;;;;20.23;12.57;;;6.10;99.90;;;;;;5053858;28;20456;-82
2023/12/14 06:33:41;;;;;;;19.40;12.50;;;6.10;99.90;;;;;;5053832;28;20939;-82
2023/12/14 06:36:09;;;;;;;22.67;13.33;;;6.20;99.90;;;;;;5061843;28;20461;-82
2023/12/14 06:38:40;;;;;;;20.77;12.83;;;6.20;99.90;;;;;;5059122;28;20558;-82
2023/12/14 06:41:07;;;;;;;19.43;11.83;;;6.20;99.90;;;;;;5058062;28;20501;-81
2023/12/14 06:43:40;;;;;;;16.70;12.27;;;6.20;99.90;;;;;;5064408;28;21049;-80
2023/12/14 06:46:08;;;;;;;19.40;11.60;;;6.10;99.90;;;;;;5059860;28;20452;-81
2023/12/14 06:48:39;;;;;;;24.20;13.30;;;6.10;99.90;;;;;;5069480;28;20476;-82
2023/12/14 06:51:06;;;;;;;14.73;11.03;;;6.20;99.90;;;;;;5053997;28;20460;-81
2023/12/14 06:53:33;;;;;;;15.23;10.20;;;6.20;99.90;;;;;;5049966;28;20540;-82
2023/12/14 06:56:01;;;;;;;15.40;9.70;;;6.30;99.90;;;;;;5057410;28;20968;-82
2023/12/14 06:58:27;;;;;;;14.17;10.33;;;6.30;99.90;;;;;;5060073;28;20487;-82
2023/12/14 07:00:54;;;;;;;14.67;9.30;;;6.30;99.90;;;;;;5055450;28;20484;-81
2023/12/14 07:03:21;;;;;;;13.57;9.90;;;6.40;99.90;;;;;;5055685;28;20533;-81
2023/12/14 07:05:48;;;;;;;15.30;10.50;;;6.40;99.90;;;;;;5057997;28;20459;-82
2023/12/14 07:08:15;;;;;;;14.57;9.00;;;6.30;99.90;;;;;;5054289;28;20471;-82
2023/12/14 07:10:42;;;;;;;12.37;8.97;;;6.40;99.90;;;;;;5058005;28;20460;-81
2023/12/14 07:13:11;;;;;;;12.07;9.33;;;6.40;99.90;;;;;;5048516;28;21451;-80
2023/12/14 07:15:37;;;;;;;15.93;10.30;;;6.50;99.90;;;;;;5048106;28;21735;-80
2023/12/14 07:18:04;;;;;;;16.23;10.33;;;6.50;99.90;;;;;;5054012;28;20448;-80
2023/12/14 07:20:31;;;;;;;11.80;9.57;;;6.50;99.90;;;;;;5052290;28;20547;-82
2023/12/14 07:22:58;;;;;;;16.57;11.93;;;6.60;99.90;;;;;;5058612;28;20447;-81
2023/12/14 07:25:25;;;;;;;15.20;11.60;;;6.60;99.90;;;;;;5054085;28;20455;-81
2023/12/14 07:27:52;;;;;;;12.90;9.70;;;6.50;99.90;;;;;;5054927;28;20961;-80
2023/12/14 07:30:20;;;;;;;15.10;10.97;;;6.50;99.90;;;;;;5051586;28;20496;-80
2023/12/14 07:32:47;;;;;;;15.93;8.77;;;6.50;99.90;;;;;;5052482;28;20458;-80
2023/12/14 07:35:14;;;;;;;18.30;9.73;;;6.50;99.90;;;;;;5055106;28;20447;-81
2023/12/14 07:37:41;;;;;;;11.67;8.33;;;6.60;99.90;;;;;;5053316;28;20529;-80
2023/12/14 07:40:09;;;;;;;13.20;8.50;;;6.60;99.90;;;;;;5103010;22;20567;-81
2023/12/14 07:42:38;;;;;;;12.73;7.90;;;6.50;99.90;;;;;;5040961;28;20968;-81
2023/12/14 07:45:40;;;;;;;13.03;8.67;;;6.60;99.90;;;;;;5043893;28;20521;-81
2023/12/14 07:48:11;;;;;;;11.50;8.40;;;6.50;99.90;;;;;;5038261;28;20448;-80
2023/12/14 07:50:38;;;;;;;14.43;9.53;;;6.50;99.90;;;;;;5037717;28;20486;-81
2023/12/14 07:53:05;;;;;;;11.30;8.03;;;6.50;99.90;;;;;;5036702;28;20548;-80
2023/12/14 07:55:32;;;;;;;13.80;9.13;;;6.60;99.90;;;;;;5039217;28;20531;-81
2023/12/14 07:57:59;;;;;;;11.83;8.33;;;6.50;99.90;;;;;;5037194;28;20535;-82
2023/12/14 08:00:26;;;;;;;10.10;7.73;;;6.50;99.90;;;;;;5033564;28;20472;-81
2023/12/14 08:02:54;;;;;;;11.80;7.90;;;6.60;99.90;;;;;;5035341;28;20479;-81
2023/12/14 08:05:21;;;;;;;12.20;8.70;;;6.60;99.90;;;;;;5034506;28;20495;-80
2023/12/14 08:07:48;;;;;;;13.10;8.87;;;6.60;99.90;;;;;;5040159;28;20524;-80
2023/12/14 08:10:15;;;;;;;14.03;10.53;;;6.60;99.90;;;;;;5039431;28;20563;-79
2023/12/14 08:12:42;;;;;;;14.10;9.10;;;6.60;99.90;;;;;;5039739;28;20906;-80
2023/12/14 08:15:09;;;;;;;15.33;10.23;;;6.60;99.90;;;;;;5038508;28;20453;-82
2023/12/14 08:17:36;;;;;;;13.60;9.10;;;6.50;99.90;;;;;;5038452;28;20528;-82
2023/12/14 08:20:08;;;;;;;14.07;10.10;;;6.60;99.90;;;;;;5036854;28;20469;-81
2023/12/14 08:22:35;;;;;;;12.80;8.60;;;6.50;99.90;;;;;;5038781;28;20449;-82
2023/12/14 08:25:10;;;;;;;12.97;8.97;;;6.60;99.90;;;;;;5036637;28;20532;-81
2023/12/14 08:27:37;;;;;;;12.77;9.63;;;6.60;99.90;;;;;;5038646;28;20514;-82
2023/12/14 08:30:08;;;;;;;12.57;9.40;;;6.60;99.90;;;;;;5036824;28;20464;-81
2023/12/14 08:32:38;;;;;;;11.43;9.63;;;6.60;99.90;;;;;;5037590;28;20474;-81
2023/12/14 08:39:37;;;;;;;11.13;8.27;;;6.70;99.90;;;;;;5033329;28;20496;-82
2023/12/14 08:42:11;;;;;;;12.77;8.30;;;6.70;99.90;;;;;;5035896;28;20956;-81
2023/12/14 08:44:55;;;;;;;9.70;7.80;;;6.70;99.90;;;;;;5038878;28;20495;-80
2023/12/14 08:47:22;;;;;;;14.00;8.60;;;6.70;99.90;;;;;;5029419;28;20888;-80
2023/12/14 08:52:54;;;;;;;17.27;12.50;;;6.50;99.90;;;;;;5032820;28;20437;-81
2023/12/14 08:55:21;;;;;;;14.93;10.90;;;6.60;99.90;;;;;;5036777;28;20979;-82
2023/12/14 08:57:48;;;;;;;16.90;11.23;;;6.60;99.90;;;;;;5036558;28;20465;-82
2023/12/14 09:00:51;;;;;;;18.27;13.20;;;6.50;99.90;;;;;;5036393;28;20923;-81
2023/12/14 09:03:45;;;;;;;18.10;11.80;;;6.50;99.90;;;;;;5038335;28;20456;-81
2023/12/14 09:06:14;;;;;;;18.03;11.07;;;6.60;99.90;;;;;;5038444;28;20497;-80
2023/12/14 09:08:44;;;;;;;19.37;12.93;;;6.60;99.90;;;;;;5037993;28;21056;-82
2023/12/14 09:11:15;;;;;;;15.83;11.53;;;6.60;99.90;;;;;;5039283;28;20452;-81
2023/12/14 09:14:17;;;;;;;17.20;12.07;;;6.70;99.90;;;;;;5039933;28;20464;-81
2023/12/14 09:16:47;;;;;;;20.80;13.00;;;6.70;99.90;;;;;;5036043;28;20457;-84
2023/12/14 09:19:17;;;;;;;16.60;12.00;;;6.80;99.90;;;;;;5040422;28;21217;-81
2023/12/14 09:21:48;;;;;;;19.40;11.50;;;6.70;99.90;;;;;;5040874;28;20519;-79
2023/12/14 09:24:20;;;;;;;24.60;13.70;;;6.70;99.90;;;;;;5041688;28;20547;-80
2023/12/14 09:26:52;;;;;;;18.53;11.97;;;6.70;99.90;;;;;;5042127;28;20452;-80
2023/12/14 09:29:26;;;;;;;20.20;12.57;;;6.80;99.90;;;;;;5040384;28;20464;-80
2023/12/14 09:31:59;;;;;;;14.77;10.97;;;6.80;99.90;;;;;;5038278;28;20874;-80
2023/12/14 09:34:28;;;;;;;25.43;14.67;;;6.80;99.90;;;;;;5041230;28;21016;-80
2023/12/14 09:40:03;;;;;;;18.23;12.37;;;6.60;99.90;;;;;;5033698;28;20504;-80
2023/12/14 09:42:40;;;;;;;21.50;14.53;;;6.70;99.90;;;;;;5041794;28;20436;-80
2023/12/14 09:45:15;;;;;;;19.17;13.93;;;6.60;99.90;;;;;;5038013;28;20494;-80
2023/12/14 09:47:52;;;;;;;18.20;12.40;;;6.60;99.90;;;;;;5039894;28;20463;-81
2023/12/14 09:50:25;;;;;;;18.20;12.47;;;6.70;99.90;;;;;;5041029;28;20473;-80
2023/12/14 09:53:02;;;;;;;22.03;13.00;;;6.80;99.90;;;;;;5041031;28;20479;-80
2023/12/14 09:55:51;;;;;;;18.40;12.40;;;6.80;99.90;;;;;;5037560;28;20460;-80
2023/12/14 09:58:17;;;;;;;20.83;11.97;;;6.90;99.90;;;;;;5041616;28;20515;-81
2023/12/14 10:01:04;;;;;;;21.13;14.23;;;7.00;99.90;;;;;;5042000;28;20457;-81
2023/12/14 10:03:48;;;;;;;17.90;12.80;;;7.00;99.90;;;;;;5046066;28;20451;-81
2023/12/14 10:06:24;;;;;;;21.60;12.87;;;7.10;99.90;;;;;;5044301;28;20448;-81
2023/12/14 10:09:08;;;;;;;19.00;12.27;;;7.00;99.90;;;;;;5041688;28;20476;-82
2023/12/14 10:12:09;;;;;;;19.20;12.83;;;7.00;99.90;;;;;;5045837;28;20523;-81
2023/12/14 10:14:41;;;;;;;20.93;12.20;;;7.00;99.90;;;;;;5045123;28;20462;-83
2023/12/14 10:17:31;;;;;;;17.90;12.93;;;7.00;99.90;;;;;;5047836;28;20438;-82
2023/12/14 10:20:05;;;;;;;19.83;12.27;;;6.90;99.90;;;;;;5045542;28;20473;-81
2023/12/14 10:22:32;;;;;;;17.93;11.27;;;6.90;99.90;;;;;;5046608;28;20542;-82
2023/12/14 10:25:00;;;;;;;19.97;12.80;;;6.90;99.90;;;;;;5048642;28;20516;-81
2023/12/14 10:28:24;;;;;;;17.83;12.63;;;7.10;99.90;;;;;;5049889;28;20451;-82
2023/12/14 10:30:56;;;;;;;18.70;13.23;;;6.90;99.90;;;;;;5021800;28;20465;-82
2023/12/14 10:33:25;;;;;;;21.87;13.13;;;6.90;99.90;;;;;;5041612;28;20903;-83
2023/12/14 10:35:54;;;;;;;21.63;12.83;;;6.90;99.90;;;;;;5042746;28;20418;-82
2023/12/14 10:38:42;;;;;;;19.03;11.97;;;6.90;99.90;;;;;;5046066;28;20449;-82
2023/12/14 10:47:14;;;;;;;18.93;12.00;;;7.10;99.90;;;;;;5045652;28;20450;-81
2023/12/14 10:50:20;;;;;;;20.07;14.07;;;7.10;99.90;;;;;;5043340;28;20496;-81
2023/12/14 10:52:51;;;;;;;19.67;12.83;;;7.10;99.90;;;;;;4959688;28;21013;-80
2023/12/14 10:55:38;;;;;;;20.40;13.27;;;7.20;99.90;;;;;;5036464;28;20515;-80
2023/12/14 10:58:09;;;;;;;20.20;13.13;;;7.20;99.90;;;;;;5040183;28;20457;-81
2023/12/14 11:00:37;;;;;;;17.77;11.63;;;7.20;99.90;;;;;;5039312;28;20558;-80
2023/12/14 11:03:07;;;;;;;18.30;11.63;;;7.30;99.90;;;;;;5039236;28;20449;-81
2023/12/14 11:05:36;;;;;;;20.17;12.40;;;7.30;99.90;;;;;;5039697;28;20478;-80
2023/12/14 11:11:18;;;;;;;17.90;11.50;;;;;;;;;;5131969;22;20494;-81
2023/12/14 11:17:09;;;;;;;19.27;11.67;;;7.20;99.90;;;;;;4998121;28;20540;-83
2023/12/14 11:19:50;;;;;;;17.47;11.33;;;7.30;99.90;;;;;;5053049;28;20502;-85
2023/12/14 11:22:31;;;;;;;19.20;13.10;;;7.50;99.90;;;;;;5062067;28;20453;-82
2023/12/14 11:25:05;;;;;;;14.73;10.87;;;7.40;99.90;;;;;;5070307;28;20488;-81
2023/12/14 11:27:34;;;;;;;16.97;11.50;;;7.40;99.90;;;;;;5071385;28;20442;-81
2023/12/14 11:30:03;;;;;;;16.90;12.80;;;7.40;99.90;;;;;;5053460;28;20496;-83
2023/12/14 11:32:29;;;;;;;15.13;9.70;;;7.30;99.90;;;;;;5051312;28;20457;-82
2023/12/14 11:38:10;;;;;;;13.27;8.60;;;7.20;99.90;;;;;;5059094;28;20460;-82
2023/12/14 11:40:39;;;;;;;12.33;7.60;;;7.20;99.90;;;;;;5066195;28;20508;-82
2023/12/14 11:46:47;;;;;;;11.43;7.20;;;7.20;99.90;;;;;;5048020;28;20942;-83
2023/12/14 11:49:22;;;;;;;15.93;8.37;;;7.10;99.90;;;;;;5058967;28;20556;-82
2023/12/14 11:52:09;;;;;;;14.63;7.20;;;7.00;99.90;;;;;;5061780;28;20486;-81
2023/12/14 11:54:40;;;;;;;13.00;8.70;;;7.00;99.90;;;;;;5057396;28;20457;-82
2023/12/14 11:57:11;;;;;;;11.30;7.97;;;7.00;99.90;;;;;;5049852;28;20470;-83
2023/12/14 11:59:44;;;;;;;11.33;8.23;;;6.90;99.90;;;;;;5064736;28;20468;-82
2023/12/14 12:02:14;;;;;;;12.17;7.50;;;6.80;99.90;;;;;;5057421;28;20463;-82
2023/12/14 12:04:51;;;;;;;12.43;7.70;;;6.70;99.90;;;;;;5070217;28;20860;-82
2023/12/14 12:07:38;;;;;;;11.50;7.33;;;6.60;99.90;;;;;;5068406;28;20467;-82
2023/12/14 12:10:14;;;;;;;13.50;8.00;;;6.70;99.90;;;;;;5058871;28;20497;-83
2023/12/14 12:15:23;;;;;;;11.67;6.67;;;6.80;99.90;;;;;;5056535;28;20461;-83
2023/12/14 12:17:49;;;;;;;14.33;8.30;;;6.80;99.90;;;;;;5069714;28;20466;-81
2023/12/14 12:20:16;;;;;;;12.27;7.77;;;6.80;99.90;;;;;;5070625;28;20491;-82
2023/12/14 12:22:50;;;;;;;11.40;7.43;;;6.70;99.90;;;;;;5062533;28;20524;-82
2023/12/14 12:25:18;;;;;;;14.57;8.43;;;6.70;99.90;;;;;;5065660;28;20481;-83
2023/12/14 12:27:47;;;;;;;14.60;8.83;;;6.80;99.90;;;;;;5062330;28;20457;-83
2023/12/14 12:30:32;;;;;;;13.50;8.33;;;6.70;99.90;;;;;;5061074;28;20830;-83
2023/12/14 12:33:09;;;;;;;14.43;9.03;;;6.70;99.90;;;;;;5060867;28;20862;-83
2023/12/14 12:35:41;;;;;;;13.00;7.83;;;6.60;99.90;;;;;;5065505;28;20475;-83
2023/12/14 12:38:15;;;;;;;14.13;9.47;;;6.80;99.90;;;;;;5067305;28;20685;-82
2023/12/14 12:40:42;;;;;;;13.80;8.40;;;6.90;99.90;;;;;;5047355;28;20507;-83
2023/12/14 12:43:09;;;;;;;13.03;8.87;;;6.80;99.90;;;;;;5051518;28;20441;-84
2023/12/14 12:45:37;;;;;;;15.00;9.00;;;6.80;99.90;;;;;;5052191;28;20493;-84
2023/12/14 12:48:08;;;;;;;14.90;9.30;;;6.80;99.90;;;;;;5066514;28;20460;-84
2023/12/14 12:50:35;;;;;;;16.40;9.93;;;6.80;99.90;;;;;;5058197;28;20455;-83
2023/12/14 12:53:02;;;;;;;18.10;10.63;;;6.90;99.90;;;;;;5066780;28;20512;-82
2023/12/14 12:55:40;;;;;;;15.80;9.53;;;6.80;99.90;;;;;;5061999;28;20476;-82
2023/12/14 12:58:07;;;;;;;15.23;9.07;;;6.90;99.90;;;;;;5061568;28;20467;-81
2023/12/14 13:00:44;;;;;;;13.63;8.93;;;6.90;99.90;;;;;;5068442;28;20452;-83
2023/12/14 13:03:12;;;;;;;16.07;9.90;;;6.90;99.90;;;;;;5068635;28;20521;-83
2023/12/14 13:05:39;;;;;;;13.00;8.93;;;6.90;99.90;;;;;;5069807;28;20497;-83
2023/12/14 13:08:23;;;;;;;13.10;9.73;;;6.90;99.90;;;;;;5060538;28;20448;-81
2023/12/14 13:10:57;;;;;;;13.30;9.07;;;6.90;99.90;;;;;;5069137;28;20466;-83
2023/12/14 13:13:24;;;;;;;13.37;8.07;;;6.90;99.90;;;;;;5069041;28;20485;-82
2023/12/14 13:15:51;;;;;;;11.27;8.00;;;7.00;99.90;;;;;;5053278;28;20500;-83
2023/12/14 13:18:18;;;;;;;13.07;8.50;;;6.90;99.90;;;;;;5067898;28;20487;-83
2023/12/14 13:20:45;;;;;;;14.03;9.33;;;6.80;99.90;;;;;;5055694;28;20453;-83
2023/12/14 13:23:12;;;;;;;16.03;10.30;;;6.80;99.90;;;;;;5058477;28;20879;-83
2023/12/14 13:25:38;;;;;;;13.93;9.00;;;6.80;99.90;;;;;;5050092;28;20492;-83
2023/12/14 13:28:07;;;;;;;15.33;9.60;;;6.80;99.90;;;;;;5060002;28;20475;-82